createdAt,value
2022-09-23T00:01:47.726Z,7.30
2022-09-23T00:04:18.258Z,12.38
2022-09-23T00:06:47.521Z,8.13
2022-09-23T00:09:16.588Z,8.45
2022-09-23T00:11:45.736Z,8.07
2022-09-23T00:14:15.029Z,9.10
2022-09-23T00:16:44.322Z,7.75
2022-09-23T00:19:13.609Z,8.32
2022-09-23T00:21:44.169Z,8.68
2022-09-23T00:24:13.399Z,8.82
2022-09-23T00:26:42.809Z,9.27
2022-09-23T00:29:12.052Z,8.57
2022-09-23T00:31:41.366Z,9.13
2022-09-23T00:34:12.316Z,7.45
2022-09-23T00:36:43.870Z,7.45
2022-09-23T00:39:13.003Z,10.65
2022-09-23T00:41:42.782Z,7.47
2022-09-23T00:44:42.072Z,8.60
2022-09-23T00:47:16.178Z,6.68
2022-09-23T00:49:46.895Z,8.15
2022-09-23T00:52:21.717Z,7.28
2022-09-23T00:54:56.349Z,9.27
2022-09-23T00:57:28.076Z,8.63
2022-09-23T00:59:57.985Z,7.25
2022-09-23T01:02:28.453Z,7.85
2022-09-23T01:04:57.929Z,8.32
2022-09-23T01:07:30.228Z,7.68
2022-09-23T01:10:02.176Z,7.75
2022-09-23T01:12:47.894Z,7.78
2022-09-23T01:15:23.216Z,6.85
2022-09-23T01:18:04.490Z,9.60
2022-09-23T01:20:50.666Z,9.18
2022-09-23T01:23:51.039Z,8.52
2022-09-23T01:26:51.097Z,7.45
2022-09-23T01:29:47.547Z,7.88
2022-09-23T01:32:26.499Z,8.05
2022-09-23T01:35:07.166Z,8.27
2022-09-23T01:37:45.702Z,7.35
2022-09-23T01:40:24.995Z,8.25
2022-09-23T01:42:59.931Z,7.78
2022-09-23T01:45:36.087Z,8.20
2022-09-23T01:48:14.086Z,7.55
2022-09-23T01:50:58.038Z,9.48
2022-09-23T01:53:39.410Z,5.80
2022-09-23T01:56:14.305Z,8.35
2022-09-23T01:58:48.411Z,9.43
2022-09-23T02:01:22.983Z,7.95
2022-09-23T02:04:01.185Z,6.55
2022-09-23T02:06:34.884Z,9.10
2022-09-23T02:09:13.376Z,8.60
2022-09-23T02:11:46.262Z,8.07
2022-09-23T02:14:21.215Z,8.38
2022-09-23T02:16:52.876Z,6.43
2022-09-23T02:19:29.157Z,8.05
2022-09-23T02:22:04.593Z,6.80
2022-09-23T02:24:37.771Z,7.22
2022-09-23T02:27:18.477Z,8.10
2022-09-23T02:29:55.403Z,9.10
2022-09-23T02:32:32.032Z,6.40
2022-09-23T02:35:13.334Z,5.93
2022-09-23T02:37:48.870Z,7.15
2022-09-23T02:40:25.267Z,8.43
2022-09-23T02:43:06.742Z,10.35
2022-09-23T02:45:38.051Z,6.07
2022-09-23T02:48:11.825Z,6.57
2022-09-23T02:50:42.488Z,6.20
2022-09-23T02:53:12.002Z,7.65
2022-09-23T02:55:42.379Z,6.75
2022-09-23T02:58:14.695Z,7.30
2022-09-23T03:00:56.637Z,11.23
2022-09-23T03:03:41.055Z,9.02
2022-09-23T03:06:22.932Z,9.48
2022-09-23T03:08:59.096Z,6.78
2022-09-23T03:11:29.942Z,4.90
2022-09-23T03:14:17.664Z,8.48
2022-09-23T03:16:56.023Z,7.13
2022-09-23T03:19:33.017Z,9.88
2022-09-23T03:22:08.311Z,7.63
2022-09-23T03:27:14.022Z,7.18
2022-09-23T03:29:47.559Z,10.85
2022-09-23T03:32:19.531Z,8.70
2022-09-23T03:34:52.308Z,6.88
2022-09-23T03:37:30.523Z,7.75
2022-09-23T03:40:05.428Z,7.32
2022-09-23T03:42:36.424Z,6.97
2022-09-23T03:45:09.973Z,7.18
2022-09-23T03:47:42.984Z,7.50
2022-09-23T03:50:14.964Z,7.43
2022-09-23T03:52:48.011Z,7.78
2022-09-23T03:55:20.782Z,7.22
2022-09-23T03:57:52.959Z,7.18
2022-09-23T04:00:26.404Z,10.07
2022-09-23T04:03:00.076Z,8.13
2022-09-23T04:05:39.504Z,6.30
2022-09-23T04:08:17.191Z,7.07
2022-09-23T04:10:54.859Z,8.00
2022-09-23T04:13:27.556Z,8.20
2022-09-23T04:15:56.759Z,10.20
2022-09-23T04:18:26.243Z,9.32
2022-09-23T04:20:59.764Z,5.95
2022-09-23T04:23:30.476Z,6.22
2022-09-23T04:25:59.803Z,7.05
2022-09-23T04:28:29.104Z,8.65
2022-09-23T04:30:58.199Z,10.70
2022-09-23T04:33:27.471Z,8.48
2022-09-23T04:35:57.070Z,8.85
2022-09-23T04:38:26.150Z,6.78
2022-09-23T04:40:56.779Z,10.32
2022-09-23T04:43:26.020Z,6.82
2022-09-23T04:46:02.248Z,8.10
2022-09-23T04:48:32.030Z,5.28
2022-09-23T04:51:04.340Z,6.35
2022-09-23T04:53:33.930Z,5.97
2022-09-23T04:56:05.950Z,6.88
2022-09-23T04:58:35.444Z,7.45
2022-09-23T05:01:11.749Z,9.38
2022-09-23T05:03:43.702Z,5.85
2022-09-23T05:06:16.121Z,7.70
2022-09-23T05:08:51.671Z,5.90
2022-09-23T05:11:22.636Z,5.40
2022-09-23T05:13:53.736Z,5.15
2022-09-23T05:16:24.657Z,6.38
2022-09-23T05:18:54.917Z,7.00
2022-09-23T05:21:25.238Z,5.25
2022-09-23T05:23:59.051Z,6.85
2022-09-23T05:26:31.438Z,7.57
2022-09-23T05:29:01.318Z,8.88
2022-09-23T05:31:32.086Z,4.30
2022-09-23T05:34:04.877Z,7.10
2022-09-23T05:36:38.733Z,5.78
2022-09-23T05:39:09.454Z,4.88
2022-09-23T05:41:40.647Z,5.07
2022-09-23T05:44:12.113Z,6.20
2022-09-23T05:46:42.557Z,8.27
2022-09-23T05:49:12.200Z,18.15
2022-09-23T05:51:41.549Z,7.20
2022-09-23T05:54:11.009Z,4.82
2022-09-23T05:56:41.584Z,4.85
2022-09-23T05:59:10.679Z,6.18
2022-09-23T06:01:39.847Z,4.22
2022-09-23T06:04:14.610Z,5.25
2022-09-23T06:06:44.813Z,4.97
2022-09-23T06:09:16.125Z,4.53
2022-09-23T06:11:47.355Z,4.90
2022-09-23T06:14:16.853Z,3.63
2022-09-23T06:16:46.054Z,4.68
2022-09-23T06:19:15.404Z,3.80
2022-09-23T06:21:44.575Z,5.43
2022-09-23T06:24:18.140Z,4.07
2022-09-23T06:29:20.608Z,4.05
2022-09-23T06:31:51.078Z,3.42
2022-09-23T06:34:20.738Z,4.18
2022-09-23T06:36:51.813Z,4.93
2022-09-23T06:39:21.110Z,3.35
2022-09-23T06:41:51.707Z,5.07
2022-09-23T06:44:23.774Z,3.47
2022-09-23T06:46:53.343Z,3.47
2022-09-23T06:49:23.093Z,8.30
2022-09-23T06:51:52.701Z,7.47
2022-09-23T06:54:28.428Z,3.17
2022-09-23T06:57:02.479Z,4.10
2022-09-23T06:59:32.326Z,7.55
2022-09-23T07:02:01.718Z,4.28
2022-09-23T07:04:30.925Z,6.03
2022-09-23T07:07:00.007Z,4.55
2022-09-23T07:09:29.215Z,4.15
2022-09-23T07:11:59.989Z,6.10
2022-09-23T07:14:29.607Z,4.00
2022-09-23T07:17:00.144Z,3.45
2022-09-23T07:19:29.183Z,4.22
2022-09-23T07:21:58.864Z,2.47
2022-09-23T07:24:28.065Z,3.13
2022-09-23T07:26:57.371Z,2.55
2022-09-23T07:29:28.732Z,3.63
2022-09-23T07:32:09.803Z,2.83
2022-09-23T07:34:41.442Z,3.25
2022-09-23T07:37:10.885Z,2.20
2022-09-23T07:39:41.815Z,3.83
2022-09-23T07:42:14.439Z,3.40
2022-09-23T07:44:48.122Z,2.22
2022-09-23T07:47:17.728Z,2.55
2022-09-23T07:49:47.050Z,2.47
2022-09-23T07:52:16.265Z,3.00
2022-09-23T07:54:49.590Z,3.30
2022-09-23T07:59:51.108Z,2.50
2022-09-23T08:02:20.485Z,10.98
2022-09-23T08:04:50.820Z,2.90
2022-09-23T08:07:20.000Z,3.28
2022-09-23T08:09:49.254Z,4.20
2022-09-23T08:12:20.380Z,6.03
2022-09-23T08:14:51.427Z,4.63
2022-09-23T08:17:20.945Z,3.33
2022-09-23T08:19:50.803Z,4.47
2022-09-23T08:22:21.195Z,3.30
2022-09-23T08:24:52.422Z,2.70
2022-09-23T08:27:22.183Z,3.70
2022-09-23T08:29:52.907Z,3.00
2022-09-23T08:32:22.078Z,5.60
2022-09-23T08:34:51.465Z,3.83
2022-09-23T08:37:23.116Z,4.75
2022-09-23T08:39:52.414Z,2.92
2022-09-23T08:42:32.572Z,4.18
2022-09-23T08:45:06.909Z,4.00
2022-09-23T08:47:48.436Z,5.28
2022-09-23T08:50:20.769Z,8.40
2022-09-23T08:52:55.155Z,2.13
2022-09-23T08:55:33.636Z,1.93
2022-09-23T08:58:26.639Z,3.60
2022-09-23T09:01:11.586Z,5.05
2022-09-23T09:03:46.799Z,3.42
2022-09-23T09:06:20.263Z,2.28
2022-09-23T09:08:57.196Z,2.05
2022-09-23T09:11:35.425Z,2.17
2022-09-23T09:14:16.613Z,2.50
2022-09-23T09:17:00.593Z,2.80
2022-09-23T09:19:55.447Z,2.30
2022-09-23T09:22:39.507Z,4.38
2022-09-23T09:25:27.293Z,3.17
2022-09-23T09:27:59.346Z,4.20
2022-09-23T09:30:29.606Z,3.13
2022-09-23T09:33:04.368Z,3.50
2022-09-23T09:35:40.534Z,4.78
2022-09-23T09:38:11.808Z,6.72
2022-09-23T09:40:48.837Z,3.78
2022-09-23T09:43:23.674Z,3.70
2022-09-23T09:46:05.128Z,4.18
2022-09-23T09:48:40.242Z,3.20
2022-09-23T09:51:21.650Z,5.55
2022-09-23T09:53:52.710Z,5.55
2022-09-23T09:56:26.962Z,5.22
2022-09-23T09:59:01.098Z,5.25
2022-09-23T10:01:32.935Z,4.65
2022-09-23T10:04:08.223Z,3.40
2022-09-23T10:09:13.809Z,3.88
2022-09-23T10:11:43.384Z,5.20
2022-09-23T10:14:17.673Z,5.88
2022-09-23T10:16:49.166Z,3.95
2022-09-23T10:19:28.212Z,5.07
2022-09-23T10:22:02.628Z,4.82
2022-09-23T10:24:36.499Z,3.88
2022-09-23T10:27:09.058Z,4.38
2022-09-23T10:29:40.396Z,6.72
2022-09-23T10:32:34.473Z,4.40
2022-09-23T10:35:14.845Z,5.20
2022-09-23T10:37:48.758Z,4.07
2022-09-23T10:40:43.385Z,4.57
2022-09-23T10:43:46.245Z,4.43
2022-09-23T10:46:38.040Z,7.72
2022-09-23T10:49:31.307Z,3.08
2022-09-23T10:52:17.538Z,5.45
2022-09-23T10:55:00.836Z,3.55
2022-09-23T10:57:44.563Z,3.78
2022-09-23T11:00:23.471Z,2.42
2022-09-23T11:03:17.775Z,3.70
2022-09-23T11:05:58.332Z,3.83
2022-09-23T11:08:51.125Z,3.47
2022-09-23T11:11:34.172Z,4.03
2022-09-23T11:14:18.458Z,3.97
2022-09-23T11:17:13.691Z,3.83
2022-09-23T11:20:11.694Z,4.93
2022-09-23T11:22:54.251Z,5.40
2022-09-23T11:25:41.849Z,4.65
2022-09-23T11:28:30.169Z,2.53
2022-09-23T11:31:10.307Z,4.38
2022-09-23T11:33:56.083Z,4.95
2022-09-23T11:36:32.897Z,6.70
2022-09-23T11:39:11.337Z,3.38
2022-09-23T11:41:44.951Z,5.13
2022-09-23T11:44:20.183Z,6.65
2022-09-23T11:46:56.944Z,4.10
2022-09-23T11:49:33.049Z,5.20
2022-09-23T11:52:08.628Z,4.38
2022-09-23T11:54:45.140Z,3.63
2022-09-23T11:57:23.840Z,4.35
2022-09-23T11:59:58.679Z,3.53
2022-09-23T12:02:35.977Z,4.47
2022-09-23T12:05:12.618Z,4.90
2022-09-23T12:07:51.930Z,7.38
2022-09-23T12:10:23.721Z,3.78
2022-09-23T12:13:01.130Z,4.07
2022-09-23T12:15:45.580Z,3.00
2022-09-23T12:18:45.761Z,3.42
2022-09-23T12:21:53.311Z,4.20
2022-09-23T12:24:47.940Z,4.18
2022-09-23T12:27:26.184Z,7.28
2022-09-23T12:30:01.225Z,3.15
2022-09-23T12:32:33.207Z,3.95
2022-09-23T12:35:04.717Z,5.35
2022-09-23T12:37:39.327Z,4.05
2022-09-23T12:40:24.662Z,3.63
2022-09-23T12:42:56.693Z,4.63
2022-09-23T12:45:50.190Z,4.30
2022-09-23T12:51:27.195Z,3.50
2022-09-23T12:54:39.512Z,4.75
2022-09-23T12:57:16.314Z,6.25
2022-09-23T13:00:02.379Z,4.07
2022-09-23T13:03:16.731Z,3.45
2022-09-23T13:06:07.817Z,3.00
2022-09-23T13:08:41.656Z,5.28
2022-09-23T13:11:23.011Z,3.88
2022-09-23T13:13:56.807Z,4.70
2022-09-23T13:16:31.997Z,3.55
2022-09-23T13:19:47.821Z,5.47
2022-09-23T13:23:02.043Z,4.70
2022-09-23T13:25:46.175Z,3.33
2022-09-23T13:28:27.816Z,3.63
2022-09-23T13:30:58.644Z,3.75
2022-09-23T13:33:36.341Z,3.15
2022-09-23T13:36:15.500Z,5.75
2022-09-23T13:38:46.733Z,4.70
2022-09-23T13:41:19.022Z,3.33
2022-09-23T13:43:52.138Z,9.20
2022-09-23T13:46:23.986Z,4.55
2022-09-23T13:48:56.411Z,4.72
2022-09-23T13:51:30.561Z,6.43
2022-09-23T13:54:01.600Z,5.13
2022-09-23T13:56:35.739Z,4.50
2022-09-23T13:59:26.444Z,4.00
2022-09-23T14:02:06.927Z,3.65
2022-09-23T14:04:36.807Z,4.10
2022-09-23T14:07:09.671Z,3.75
2022-09-23T14:09:43.140Z,3.83
2022-09-23T14:12:13.254Z,4.60
2022-09-23T14:14:45.080Z,3.53
2022-09-23T14:17:19.732Z,4.97
2022-09-23T14:19:49.492Z,4.63
2022-09-23T14:22:29.321Z,3.20
2022-09-23T14:24:59.720Z,5.00
2022-09-23T14:27:31.593Z,4.30
2022-09-23T14:30:04.308Z,5.22
2022-09-23T14:32:36.229Z,5.15
2022-09-23T14:35:20.141Z,4.43
2022-09-23T14:38:10.556Z,3.95
2022-09-23T14:40:51.168Z,4.32
2022-09-23T14:43:26.215Z,4.65
2022-09-23T14:48:30.014Z,4.65
2022-09-23T14:51:00.975Z,5.80
2022-09-23T14:53:45.851Z,3.90
2022-09-23T14:56:19.565Z,6.00
2022-09-23T14:58:53.148Z,4.55
2022-09-23T15:01:40.333Z,6.65
2022-09-23T15:04:17.851Z,4.18
2022-09-23T15:06:55.745Z,3.72
2022-09-23T15:09:28.756Z,5.13
2022-09-23T15:12:00.493Z,8.32
2022-09-23T15:14:38.474Z,6.22
2022-09-23T15:17:18.268Z,3.70
2022-09-23T15:19:55.759Z,4.30
2022-09-23T15:22:26.408Z,4.25
2022-09-23T15:25:12.944Z,7.32
2022-09-23T15:27:44.055Z,4.55
2022-09-23T15:30:27.145Z,4.88
2022-09-23T15:33:05.583Z,4.45
2022-09-23T15:35:44.769Z,5.32
2022-09-23T15:41:44.504Z,4.10
2022-09-23T15:44:22.108Z,5.00
2022-09-23T15:46:54.481Z,3.80
2022-09-23T15:49:34.572Z,5.15
2022-09-23T15:52:07.631Z,5.75
2022-09-23T15:54:38.122Z,7.63
2022-09-23T15:57:11.312Z,6.10
2022-09-23T15:59:41.404Z,7.80
2022-09-23T16:02:21.758Z,5.10
2022-09-23T16:04:57.749Z,5.50
2022-09-23T16:07:29.021Z,5.25
2022-09-23T16:09:59.641Z,4.15
2022-09-23T16:12:31.612Z,3.35
2022-09-23T16:15:01.164Z,5.57
2022-09-23T16:17:32.584Z,5.82
2022-09-23T16:20:03.040Z,5.90
2022-09-23T16:22:33.531Z,6.68
2022-09-23T16:25:02.953Z,7.35
2022-09-23T16:27:37.688Z,6.40
2022-09-23T16:30:12.533Z,9.25
2022-09-23T16:32:42.632Z,7.88
2022-09-23T16:35:12.280Z,6.15
2022-09-23T16:37:47.055Z,6.03
2022-09-23T16:40:19.947Z,8.30
2022-09-23T16:42:52.534Z,6.18
2022-09-23T16:45:23.429Z,4.85
2022-09-23T16:47:54.427Z,5.15
2022-09-23T16:50:24.960Z,5.45
2022-09-23T16:52:57.058Z,6.55
2022-09-23T16:55:27.528Z,7.82
2022-09-23T16:57:58.414Z,6.80
2022-09-23T17:00:45.780Z,4.55
2022-09-23T17:03:32.270Z,4.82
2022-09-23T17:06:07.214Z,6.22
2022-09-23T17:08:37.344Z,6.03
2022-09-23T17:11:10.778Z,5.68
2022-09-23T17:13:42.717Z,5.43
2022-09-23T17:16:13.008Z,4.78
2022-09-23T17:18:42.178Z,7.78
2022-09-23T17:21:11.384Z,5.72
2022-09-23T17:23:41.152Z,4.85
2022-09-23T17:26:12.696Z,4.13
2022-09-23T17:28:43.518Z,8.00
2022-09-23T17:31:12.876Z,4.22
2022-09-23T17:33:42.864Z,7.20
2022-09-23T17:36:14.814Z,4.70
2022-09-23T17:38:45.546Z,6.25
2022-09-23T17:41:18.181Z,6.30
2022-09-23T17:43:54.791Z,4.53
2022-09-23T17:46:31.388Z,5.13
2022-09-23T17:49:01.380Z,7.07
2022-09-23T17:51:31.762Z,5.53
2022-09-23T17:54:02.561Z,4.03
2022-09-23T17:56:33.290Z,4.70
2022-09-23T17:59:06.075Z,5.93
2022-09-23T18:01:37.343Z,5.07
2022-09-23T18:04:06.931Z,4.50
2022-09-23T18:06:38.701Z,4.47
2022-09-23T18:09:09.606Z,5.22
2022-09-23T18:11:41.210Z,5.25
2022-09-23T18:14:16.718Z,7.65
2022-09-23T18:16:49.453Z,4.43
2022-09-23T18:19:21.296Z,4.57
2022-09-23T18:21:52.500Z,4.13
2022-09-23T18:24:37.929Z,8.73
2022-09-23T18:27:07.538Z,3.30
2022-09-23T18:29:38.343Z,6.20
2022-09-23T18:32:12.145Z,5.20
2022-09-23T18:34:44.317Z,4.95
2022-09-23T18:37:16.017Z,5.63
2022-09-23T18:39:46.423Z,5.07
2022-09-23T18:42:15.820Z,5.85
2022-09-23T18:44:47.935Z,4.68
2022-09-23T18:47:38.246Z,5.78
2022-09-23T18:50:26.335Z,7.30
2022-09-23T18:52:58.734Z,4.38
2022-09-23T18:55:28.965Z,4.97
2022-09-23T18:58:00.108Z,5.60
2022-09-23T19:00:31.463Z,7.15
2022-09-23T19:03:01.385Z,9.02
2022-09-23T19:05:30.918Z,4.47
2022-09-23T19:08:00.231Z,9.93
2022-09-23T19:10:29.545Z,6.32
2022-09-23T19:12:58.612Z,4.60
2022-09-23T19:15:28.025Z,6.50
2022-09-23T19:17:59.011Z,5.55
2022-09-23T19:20:29.479Z,5.88
2022-09-23T19:22:58.807Z,7.85
2022-09-23T19:25:53.900Z,5.60
2022-09-23T19:28:23.681Z,7.43
2022-09-23T19:30:53.025Z,6.78
2022-09-23T19:33:26.011Z,7.50
2022-09-23T19:35:55.150Z,5.43
2022-09-23T19:38:24.298Z,4.05
2022-09-23T19:40:54.034Z,6.78
2022-09-23T19:43:25.293Z,5.18
2022-09-23T19:45:55.180Z,5.38
2022-09-23T19:48:25.873Z,6.20
2022-09-23T19:50:55.341Z,4.97
2022-09-23T19:53:28.122Z,4.85
2022-09-23T19:55:57.434Z,6.18
2022-09-23T19:58:26.839Z,5.22
2022-09-23T20:00:56.877Z,5.55
2022-09-23T20:03:28.576Z,7.10
2022-09-23T20:05:58.319Z,6.47
2022-09-23T20:08:31.245Z,7.28
2022-09-23T20:11:00.690Z,5.80
2022-09-23T20:13:31.551Z,8.80
2022-09-23T20:16:01.022Z,10.05
2022-09-23T20:18:31.900Z,6.07
2022-09-23T20:21:00.886Z,8.70
2022-09-23T20:23:30.261Z,7.25
2022-09-23T20:26:17.912Z,6.47
2022-09-23T20:28:47.293Z,4.38
2022-09-23T20:31:17.846Z,7.82
2022-09-23T20:33:51.599Z,7.30
2022-09-23T20:36:21.446Z,5.60
2022-09-23T20:38:54.958Z,4.65
2022-09-23T20:41:30.255Z,8.38
2022-09-23T20:44:02.574Z,6.60
2022-09-23T20:46:33.193Z,7.68
2022-09-23T20:49:10.388Z,8.10
2022-09-23T20:51:40.605Z,7.28
2022-09-23T20:54:09.798Z,10.30
2022-09-23T20:56:46.247Z,6.90
2022-09-23T20:59:17.960Z,6.93
2022-09-23T21:01:48.004Z,9.48
2022-09-23T21:04:19.203Z,10.50
2022-09-23T21:06:49.498Z,11.45
2022-09-23T21:09:19.188Z,6.53
2022-09-23T21:11:48.602Z,7.57
2022-09-23T21:14:17.930Z,7.35
2022-09-23T21:16:48.064Z,10.90
2022-09-23T21:19:19.467Z,6.88
2022-09-23T21:21:49.025Z,9.88
2022-09-23T21:25:25.080Z,8.05
2022-09-23T21:27:09.896Z,8.63
2022-09-23T21:29:40.277Z,9.02
2022-09-23T21:32:10.928Z,7.57
2022-09-23T21:34:41.710Z,9.50
2022-09-23T21:37:12.273Z,14.43
2022-09-23T21:40:02.069Z,10.90
2022-09-23T21:42:33.484Z,9.20
2022-09-23T21:45:06.539Z,8.65
2022-09-23T21:47:40.911Z,9.48
2022-09-23T21:50:17.369Z,11.45
2022-09-23T21:52:52.190Z,11.60
2022-09-23T21:55:21.391Z,8.70
2022-09-23T21:57:51.702Z,9.07
2022-09-23T22:00:21.737Z,11.15
2022-09-23T22:02:50.926Z,11.18
2022-09-23T22:05:21.766Z,14.07
2022-09-23T22:07:50.860Z,12.63
2022-09-23T22:10:20.047Z,12.00
2022-09-23T22:12:49.891Z,9.40
2022-09-23T22:15:20.613Z,9.55
2022-09-23T22:17:50.203Z,11.13
2022-09-23T22:20:21.814Z,13.27
2022-09-23T22:22:51.905Z,10.60
2022-09-23T22:25:22.220Z,9.93
2022-09-23T22:28:09.696Z,10.27
2022-09-23T22:31:01.280Z,11.13
2022-09-23T22:33:32.060Z,11.00
2022-09-23T22:36:12.173Z,11.57
2022-09-23T22:38:45.074Z,12.02
2022-09-23T22:41:21.226Z,9.30
2022-09-23T22:43:54.563Z,10.15
2022-09-23T22:46:29.595Z,13.90
2022-09-23T22:49:01.449Z,10.20
2022-09-23T22:51:34.129Z,10.18
2022-09-23T22:54:10.454Z,12.75
2022-09-23T22:56:44.437Z,12.13
2022-09-23T22:59:16.969Z,12.30
2022-09-23T23:01:47.866Z,9.77
2022-09-23T23:04:18.595Z,10.00
2022-09-23T23:06:51.323Z,9.80
2022-09-23T23:09:21.291Z,10.65
2022-09-23T23:11:50.824Z,12.13
2022-09-23T23:14:21.872Z,10.30
2022-09-23T23:16:51.609Z,8.18
2022-09-23T23:19:21.921Z,9.48
2022-09-23T23:21:54.489Z,7.25
2022-09-23T23:24:25.121Z,6.63
2022-09-23T23:26:54.924Z,9.65
2022-09-23T23:29:24.806Z,10.32
2022-09-23T23:31:54.449Z,8.18
2022-09-23T23:34:24.472Z,8.27
2022-09-23T23:36:56.049Z,7.38
2022-09-23T23:39:26.670Z,9.48
2022-09-23T23:41:58.115Z,6.85
2022-09-23T23:44:31.343Z,9.30
2022-09-23T23:47:02.532Z,7.45
2022-09-23T23:49:32.849Z,7.85
2022-09-23T23:52:04.133Z,7.97
2022-09-23T23:54:34.122Z,9.73
2022-09-23T23:57:09.582Z,7.95
2022-09-23T23:59:39.568Z,6.38
